KHTS/HTS METAR and TAF weather

Enter ICAO airport designator
Station Type Date Time Source
KHTS METAR 2020/09/27 15:51 UTC NOAA

KHTS 271551Z 17006KT 10SM FEW050 23/18 A2995 RMK AO2 SLP136 T02280183


Station Type Date Time Source
KHTS Decoded METAR 2020/09/27 15:51 UTC NOAA

TRI-STATE AIRPORT, WV, United States (KHTS) 38-22N 082-33W 254M
Sep 27, 2020 - 11:51 AM EDT / 2020.09.27 1551 UTC
Wind: from the S (170 degrees) at 7 MPH (6 KT):0
Visibility: 10 mile(s):0
Sky conditions: mostly clear
Temperature: 73.0 F (22.8 C)
Dew Point: 64.9 F (18.3 C)
Relative Humidity: 75%
Pressure (altimeter): 29.95 in. Hg (1014 hPa)
ob: KHTS 271551Z 17006KT 10SM FEW050 23/18 A2995 RMK AO2 SLP136 T02280183
cycle: 16

Station Type Date Time Source
KHTS TAF 2020/09/27 14:27 UTC NOAA

TAF
AMD KHTS 271424Z 2714/2812 21005KT P6SM BKN050
FM271900 21005KT P6SM SCT070
FM280000 00000KT P6SM FEW250
FM281100 19004KT P6SM SCT060

Example: see airport list